createdAt,value
2023-01-20T00:00:23.515Z,1008.4
2023-01-20T00:05:23.488Z,1008.6
2023-01-20T00:10:23.624Z,1008.6
2023-01-20T00:15:23.542Z,1008.8
2023-01-20T00:20:23.039Z,1008.8
2023-01-20T00:25:23.732Z,1008.9
2023-01-20T00:30:23.871Z,1008.9
2023-01-20T00:35:23.244Z,1008.9
2023-01-20T00:40:23.354Z,1008.9
2023-01-20T00:45:23.294Z,1008.9
2023-01-20T00:50:23.441Z,1008.9
2023-01-20T00:55:23.530Z,1009
2023-01-20T01:00:23.621Z,1009
2023-01-20T01:05:23.140Z,1009.2
2023-01-20T01:10:23.395Z,1009.2
2023-01-20T01:15:23.404Z,1009.3
2023-01-20T01:20:23.549Z,1009.3
2023-01-20T01:25:23.607Z,1009.6
2023-01-20T01:30:23.734Z,1009.6
2023-01-20T01:35:23.742Z,1009.7
2023-01-20T01:40:23.947Z,1009.7
2023-01-20T01:45:24.143Z,1009.7
2023-01-20T01:50:23.393Z,1009.7
2023-01-20T01:55:24.045Z,1009.8
2023-01-20T02:00:24.108Z,1009.8
2023-01-20T02:05:23.220Z,1009.9
2023-01-20T02:10:23.294Z,1009.9
2023-01-20T02:15:23.304Z,1010.1
2023-01-20T02:20:23.342Z,1010.1
2023-01-20T02:25:23.382Z,1010.2
2023-01-20T02:30:23.581Z,1010.2
2023-01-20T02:35:23.652Z,1010.4
2023-01-20T02:40:23.760Z,1010.4
2023-01-20T02:45:23.839Z,1010.4
2023-01-20T02:50:24.011Z,1010.4
2023-01-20T02:55:23.568Z,1010.6
2023-01-20T03:00:23.493Z,1010.6
2023-01-20T03:05:24.242Z,1010.7
2023-01-20T03:10:23.936Z,1010.7
2023-01-20T03:15:23.325Z,1010.8
2023-01-20T03:20:24.188Z,1010.8
2023-01-20T03:25:24.049Z,1010.7
2023-01-20T03:30:23.437Z,1010.7
2023-01-20T03:35:23.699Z,1010.8
2023-01-20T03:40:23.806Z,1010.8
2023-01-20T03:45:23.892Z,1011
2023-01-20T03:50:24.003Z,1011
2023-01-20T03:55:24.029Z,1011
2023-01-20T04:00:23.525Z,1011
2023-01-20T04:05:23.154Z,1011.1
2023-01-20T04:10:23.841Z,1011.1
2023-01-20T04:15:23.589Z,1011.2
2023-01-20T04:20:23.972Z,1011.2
2023-01-20T04:25:23.241Z,1011.4
2023-01-20T04:30:23.991Z,1011.4
2023-01-20T04:35:24.014Z,1011.5
2023-01-20T04:40:23.787Z,1011.5
2023-01-20T04:45:23.337Z,1011.7
2023-01-20T04:50:23.831Z,1011.7
2023-01-20T04:55:23.378Z,1011.9
2023-01-20T05:00:23.536Z,1011.9
2023-01-20T05:05:23.714Z,1012
2023-01-20T05:10:24.075Z,1012
2023-01-20T05:15:24.279Z,1012.1
2023-01-20T05:20:23.500Z,1012.1
2023-01-20T05:25:23.693Z,1012.2
2023-01-20T05:30:24.025Z,1012.2
2023-01-20T05:35:24.175Z,1012.3
2023-01-20T05:40:24.301Z,1012.3
2023-01-20T05:45:23.400Z,1012.4
2023-01-20T05:50:23.548Z,1012.4
2023-01-20T05:55:23.621Z,1012.6
2023-01-20T06:00:23.793Z,1012.6
2023-01-20T06:05:24.023Z,1012.7
2023-01-20T06:10:24.298Z,1012.7
2023-01-20T06:15:23.500Z,1012.9
2023-01-20T06:20:29.854Z,1012.9
2023-01-20T06:25:23.842Z,1012.9
2023-01-20T06:30:24.187Z,1012.9
2023-01-20T06:35:24.215Z,1013.1
2023-01-20T06:40:23.272Z,1013.1
2023-01-20T06:45:23.332Z,1013.2
2023-01-20T06:50:23.473Z,1013.2
2023-01-20T06:55:23.680Z,1013.4
2023-01-20T07:00:23.797Z,1013.4
2023-01-20T07:05:23.838Z,1013.5
2023-01-20T07:10:24.160Z,1013.5
2023-01-20T07:15:24.273Z,1013.6
2023-01-20T07:20:24.257Z,1013.6
2023-01-20T07:25:22.632Z,1013.7
2023-01-20T07:30:24.334Z,1013.7
2023-01-20T07:35:24.364Z,1013.8
2023-01-20T07:40:23.922Z,1013.8
2023-01-20T07:45:24.285Z,1014
2023-01-20T07:50:23.891Z,1014
2023-01-20T07:55:25.387Z,1014.3
2023-01-20T08:00:23.459Z,1014.3
2023-01-20T08:05:23.856Z,1014.5
2023-01-20T08:10:24.171Z,1014.5
2023-01-20T08:15:24.209Z,1014.9
2023-01-20T08:21:46.565Z,1014.9
2023-01-20T08:25:23.710Z,1015.1
2023-01-20T08:30:24.246Z,1015.1
2023-01-20T08:35:23.430Z,1015.2
2023-01-20T08:40:23.578Z,1015.2
2023-01-20T08:45:23.542Z,1015.3
2023-01-20T08:50:23.638Z,1015.3
2023-01-20T08:55:23.943Z,1015.5
2023-01-20T09:00:24.632Z,1015.5
2023-01-20T09:05:23.504Z,1015.6
2023-01-20T09:10:24.109Z,1015.6
2023-01-20T09:15:26.033Z,1015.8
2023-01-20T09:20:24.394Z,1015.8
2023-01-20T09:25:24.261Z,1015.7
2023-01-20T09:30:23.923Z,1015.7
2023-01-20T09:35:24.227Z,1016
2023-01-20T09:40:23.575Z,1016
2023-01-20T09:45:23.696Z,1016.1
2023-01-20T09:50:23.925Z,1016.1
2023-01-20T09:55:23.687Z,1016.2
2023-01-20T10:00:24.099Z,1016.2
2023-01-20T10:05:24.160Z,1016.3
2023-01-20T10:10:23.697Z,1016.3
2023-01-20T10:15:23.745Z,1016.4
2023-01-20T10:20:28.030Z,1016.4
2023-01-20T10:25:24.274Z,1016.4
2023-01-20T10:30:23.799Z,1016.4
2023-01-20T10:35:23.578Z,1016.3
2023-01-20T10:40:23.901Z,1016.3
2023-01-20T10:45:24.115Z,1016.3
2023-01-20T10:50:24.603Z,1016.3
2023-01-20T10:55:23.703Z,1016.5
2023-01-20T11:00:24.318Z,1016.5
2023-01-20T11:05:23.687Z,1016.6
2023-01-20T11:10:23.678Z,1016.6
2023-01-20T11:15:24.177Z,1016.7
2023-01-20T11:20:24.243Z,1016.7
2023-01-20T11:25:23.490Z,1016.8
2023-01-20T11:30:23.464Z,1016.8
2023-01-20T11:35:24.371Z,1016.9
2023-01-20T11:40:23.877Z,1016.9
2023-01-20T11:45:23.939Z,1017.1
2023-01-20T11:50:23.597Z,1017.1
2023-01-20T11:55:23.803Z,1017.1
2023-01-20T12:00:24.364Z,1017.1
2023-01-20T12:05:23.826Z,1017.2
2023-01-20T12:10:24.161Z,1017.2
2023-01-20T12:15:24.284Z,1017.2
2023-01-20T12:20:24.453Z,1017.2
2023-01-20T12:25:23.955Z,1017.3
2023-01-20T12:30:24.399Z,1017.3
2023-01-20T12:35:24.529Z,1017.4
2023-01-20T12:40:24.228Z,1017.4
2023-01-20T12:45:23.577Z,1017.5
2023-01-20T12:50:24.173Z,1017.5
2023-01-20T12:55:24.100Z,1017.5
2023-01-20T13:00:24.016Z,1017.5
2023-01-20T13:05:24.055Z,1017.6
2023-01-20T13:10:23.629Z,1017.6
2023-01-20T13:15:24.510Z,1017.7
2023-01-20T13:20:24.092Z,1017.7
2023-01-20T13:25:24.004Z,1017.9
2023-01-20T13:30:24.053Z,1017.9
2023-01-20T13:35:24.373Z,1018.1
2023-01-20T13:40:24.353Z,1018.1
2023-01-20T13:45:24.239Z,1018.2
2023-01-20T13:50:24.128Z,1018.2
2023-01-20T13:55:24.051Z,1018.4
2023-01-20T14:00:23.907Z,1018.4
2023-01-20T14:05:24.649Z,1018.5
2023-01-20T14:10:24.065Z,1018.5
2023-01-20T14:15:24.374Z,1018.7
2023-01-20T14:20:23.821Z,1018.7
2023-01-20T14:25:23.997Z,1018.9
2023-01-20T14:30:24.656Z,1018.9
2023-01-20T14:35:23.964Z,1019.2
2023-01-20T14:40:24.672Z,1019.2
2023-01-20T14:45:23.795Z,1019.4
2023-01-20T14:50:24.511Z,1019.4
2023-01-20T14:55:23.973Z,1019.5
2023-01-20T15:00:24.300Z,1019.5
2023-01-20T15:05:24.614Z,1019.7
2023-01-20T15:10:23.894Z,1019.7
2023-01-20T15:15:24.236Z,1019.8
2023-01-20T15:20:23.850Z,1019.8
2023-01-20T15:25:24.103Z,1020
2023-01-20T15:30:23.875Z,1020
2023-01-20T15:35:23.986Z,1020.2
2023-01-20T15:40:24.276Z,1020.2
2023-01-20T15:45:23.971Z,1020.6
2023-01-20T15:50:24.459Z,1020.6
2023-01-20T15:55:23.996Z,1020.8
2023-01-20T16:00:24.256Z,1020.8
2023-01-20T16:05:23.604Z,1020.8
2023-01-20T16:10:24.008Z,1020.8
2023-01-20T16:15:24.614Z,1021.1
2023-01-20T16:20:24.212Z,1021.1
2023-01-20T16:25:24.447Z,1021.2
2023-01-20T16:30:23.896Z,1021.2
2023-01-20T16:35:23.988Z,1021.4
2023-01-20T16:40:24.226Z,1021.4
2023-01-20T16:45:24.217Z,1021.6
2023-01-20T16:50:24.056Z,1021.6
2023-01-20T16:55:24.550Z,1021.7
2023-01-20T17:00:23.961Z,1021.7
2023-01-20T17:05:24.032Z,1021.8
2023-01-20T17:10:24.110Z,1021.8
2023-01-20T17:15:24.209Z,1022
2023-01-20T17:20:24.326Z,1022
2023-01-20T17:25:24.472Z,1022.3
2023-01-20T17:30:26.909Z,1022.3
2023-01-20T17:35:24.148Z,1022.5
2023-01-20T17:40:24.380Z,1022.5
2023-01-20T17:45:24.501Z,1022.6
2023-01-20T17:50:24.578Z,1022.6
2023-01-20T17:55:24.239Z,1022.6
2023-01-20T18:00:24.507Z,1022.6
2023-01-20T18:05:24.523Z,1022.8
2023-01-20T18:10:24.658Z,1022.8
2023-01-20T18:15:24.704Z,1023
2023-01-20T18:20:23.747Z,1023
2023-01-20T18:25:23.878Z,1023.1
2023-01-20T18:30:24.138Z,1023.1
2023-01-20T18:35:24.090Z,1023.2
2023-01-20T18:40:24.194Z,1023.2
2023-01-20T18:45:24.247Z,1023.3
2023-01-20T18:50:24.134Z,1023.3
2023-01-20T18:55:24.031Z,1023.4
2023-01-20T19:00:24.662Z,1023.4
2023-01-20T19:05:24.397Z,1023.6
2023-01-20T19:10:24.552Z,1023.6
2023-01-20T19:15:23.930Z,1023.7
2023-01-20T19:20:24.462Z,1023.7
2023-01-20T19:25:24.525Z,1023.9
2023-01-20T19:30:24.215Z,1023.9
2023-01-20T19:35:24.150Z,1024.1
2023-01-20T19:40:24.093Z,1024.1
2023-01-20T19:45:44.766Z,1024.2
2023-01-20T19:50:24.486Z,1024.2
2023-01-20T19:55:24.669Z,1024.4
2023-01-20T20:00:24.105Z,1024.4
2023-01-20T20:05:24.103Z,1024.5
2023-01-20T20:10:24.117Z,1024.5
2023-01-20T20:15:24.213Z,1024.7
2023-01-20T20:20:24.320Z,1024.7
2023-01-20T20:25:24.700Z,1024.9
2023-01-20T20:30:24.713Z,1024.9
2023-01-20T20:35:24.684Z,1024.9
2023-01-20T20:40:24.761Z,1024.9
2023-01-20T20:45:23.772Z,1025
2023-01-20T20:50:24.887Z,1025
2023-01-20T20:55:24.417Z,1025.2
2023-01-20T21:00:23.855Z,1025.2
2023-01-20T21:05:24.672Z,1025.4
2023-01-20T21:10:24.236Z,1025.4
2023-01-20T21:15:23.950Z,1025.5
2023-01-20T21:20:24.001Z,1025.5
2023-01-20T21:25:24.388Z,1025.6
2023-01-20T21:30:24.629Z,1025.6
2023-01-20T21:35:23.891Z,1025.7
2023-01-20T21:40:24.090Z,1025.7
2023-01-20T21:45:24.641Z,1025.8
2023-01-20T21:50:24.184Z,1025.8
2023-01-20T21:55:23.971Z,1026
2023-01-20T22:00:24.059Z,1026
2023-01-20T22:05:24.538Z,1026.1
2023-01-20T22:10:23.978Z,1026.1
2023-01-20T22:15:24.613Z,1026.1
2023-01-20T22:20:24.016Z,1026.1
2023-01-20T22:25:24.779Z,1026.2
2023-01-20T22:30:24.432Z,1026.2
2023-01-20T22:35:24.741Z,1026.3
2023-01-20T22:40:24.022Z,1026.3
2023-01-20T22:45:24.411Z,1026.3
2023-01-20T22:50:24.630Z,1026.3
2023-01-20T22:55:24.983Z,1026.5
2023-01-20T23:00:24.429Z,1026.5
2023-01-20T23:05:24.714Z,1026.6
2023-01-20T23:10:24.981Z,1026.6
2023-01-20T23:15:24.070Z,1026.7
2023-01-20T23:20:24.242Z,1026.7
2023-01-20T23:25:24.301Z,1026.9
2023-01-20T23:30:24.385Z,1026.9
2023-01-20T23:35:24.423Z,1026.9
2023-01-20T23:40:24.587Z,1026.9
2023-01-20T23:45:24.601Z,1027
2023-01-20T23:50:24.690Z,1027
2023-01-20T23:55:33.231Z,1027.1
